Time;durP1;ratioP1;P1;durP2;ratioP2;P2;SDS_P1;SDS_P2;PMS_P1;PMS_P2;Temp;Humidity;BMP_temperature;BMP_pressure;BME280_temperature;BME280_humidity;BME280_pressure;Samples;Min_cycle;Max_cycle;Signal;HPM_P1;HPM_P2
2023/04/07 00:01:06;;;;;;;;;3.33;1.00;;;;;;;;5075038;27;46173;-59
2023/04/07 00:03:32;;;;;;;;;3.00;3.00;;;;;;;;5074861;27;45468;-59
2023/04/07 00:05:57;;;;;;;;;1.00;1.00;;;;;;;;5074943;28;45543;-59
2023/04/07 00:08:26;;;;;;;;;3.00;1.33;;;;;;;;5073038;28;45454;-59
2023/04/07 00:10:51;;;;;;;;;1.00;1.00;;;;;;;;5074901;27;46117;-59
2023/04/07 00:13:17;;;;;;;;;1.00;0.67;;;;;;;;5075080;27;45429;-59
2023/04/07 00:15:44;;;;;;;;;0.00;0.00;;;;;;;;5075203;27;45492;-59
2023/04/07 00:18:11;;;;;;;;;4.00;2.67;;;;;;;;5074412;27;45448;-59
2023/04/07 00:20:36;;;;;;;;;2.00;0.00;;;;;;;;5074576;27;45491;-59
2023/04/07 00:23:02;;;;;;;;;2.00;2.00;;;;;;;;5074644;28;45426;-58
2023/04/07 00:25:28;;;;;;;;;3.00;2.00;;;;;;;;5073728;27;45500;-59
2023/04/07 00:27:53;;;;;;;;;2.00;1.67;;;;;;;;5074439;27;45510;-59
2023/04/07 00:30:19;;;;;;;;;2.67;2.67;;;;;;;;5073320;27;45427;-59
2023/04/07 00:32:44;;;;;;;;;3.00;1.00;;;;;;;;5074393;27;45492;-59
2023/04/07 00:35:10;;;;;;;;;4.00;0.33;;;;;;;;5074947;27;45553;-59
2023/04/07 00:37:35;;;;;;;;;1.67;1.33;;;;;;;;5074714;27;45635;-59
2023/04/07 00:40:00;;;;;;;;;1.00;1.00;;;;;;;;5073551;27;45868;-60
2023/04/07 00:42:25;;;;;;;;;2.00;2.00;;;;;;;;5074149;28;45501;-59
2023/04/07 00:44:51;;;;;;;;;0.00;0.00;;;;;;;;5074301;28;45814;-59
2023/04/07 00:47:16;;;;;;;;;3.67;3.67;;;;;;;;5071542;27;45477;-59
2023/04/07 00:49:41;;;;;;;;;1.00;1.00;;;;;;;;5072333;27;45456;-60
2023/04/07 00:52:07;;;;;;;;;1.00;1.00;;;;;;;;5074381;27;45503;-59
2023/04/07 00:54:32;;;;;;;;;2.00;2.00;;;;;;;;5074460;27;45973;-59
2023/04/07 00:56:57;;;;;;;;;1.00;1.00;;;;;;;;5074180;27;45492;-59
2023/04/07 00:59:22;;;;;;;;;4.67;2.00;;;;;;;;5073427;27;45702;-59
2023/04/07 01:01:51;;;;;;;;;4.00;2.00;;;;;;;;5072938;27;45648;-59
2023/04/07 01:04:41;;;;;;;;;2.33;2.33;;;;;;;;5073340;27;45477;-60
2023/04/07 01:07:29;;;;;;;;;1.00;1.00;;;;;;;;5073934;27;45550;-59
2023/04/07 01:10:02;;;;;;;;;2.00;2.00;;;;;;;;5042489;28;45563;-60
2023/04/07 01:12:47;;;;;;;;;3.67;3.67;;;;;;;;5073400;28;45577;-59
2023/04/07 01:15:14;;;;;;;;;2.00;2.00;;;;;;;;5066001;27;45571;-59
2023/04/07 01:17:45;;;;;;;;;1.33;1.33;;;;;;;;5070931;27;45583;-60
2023/04/07 01:20:13;;;;;;;;;1.33;1.33;;;;;;;;5062750;27;45564;-59
2023/04/07 01:22:42;;;;;;;;;2.67;1.33;;;;;;;;5073234;27;45493;-60
2023/04/07 01:25:13;;;;;;;;;4.00;1.00;;;;;;;;5072016;27;45645;-59
2023/04/07 01:27:48;;;;;;;;;2.00;2.00;;;;;;;;5073927;27;45429;-59
2023/04/07 01:30:14;;;;;;;;;3.00;3.00;;;;;;;;5073628;28;45425;-59
2023/04/07 01:32:42;;;;;;;;;1.33;1.00;;;;;;;;5073574;27;45444;-59
2023/04/07 01:35:12;;;;;;;;;3.00;2.00;;;;;;;;5073813;27;45619;-60
2023/04/07 01:37:37;;;;;;;;;1.33;1.00;;;;;;;;5073693;27;45443;-60
2023/04/07 01:40:04;;;;;;;;;1.00;1.00;;;;;;;;5070835;27;46395;-60
2023/04/07 01:42:30;;;;;;;;;2.00;2.00;;;;;;;;5071875;27;45599;-59
2023/04/07 01:44:56;;;;;;;;;4.67;3.00;;;;;;;;5072985;27;45480;-59
2023/04/07 01:47:21;;;;;;;;;3.00;3.00;;;;;;;;5071922;27;45676;-59
2023/04/07 01:49:48;;;;;;;;;2.00;2.00;;;;;;;;5072541;27;46165;-59
2023/04/07 01:52:14;;;;;;;;;3.00;3.00;;;;;;;;5073094;28;45519;-59
2023/04/07 01:54:40;;;;;;;;;3.00;2.00;;;;;;;;5072957;27;45534;-59
2023/04/07 01:57:05;;;;;;;;;3.00;2.00;;;;;;;;5072534;27;45574;-60
2023/04/07 01:59:30;;;;;;;;;3.00;3.00;;;;;;;;5073182;27;46194;-59
2023/04/07 02:01:55;;;;;;;;;4.00;3.00;;;;;;;;5066976;27;45500;-60
2023/04/07 02:04:24;;;;;;;;;4.33;3.00;;;;;;;;5073332;28;45445;-59
2023/04/07 02:06:55;;;;;;;;;1.00;1.00;;;;;;;;5072737;27;45615;-59
2023/04/07 02:09:21;;;;;;;;;1.67;1.67;;;;;;;;5058348;28;45487;-59
2023/04/07 02:11:47;;;;;;;;;1.67;1.67;;;;;;;;5072969;27;45487;-60
2023/04/07 02:14:13;;;;;;;;;4.00;3.00;;;;;;;;5076765;27;45479;-59
2023/04/07 02:16:38;;;;;;;;;2.00;2.00;;;;;;;;5076546;27;45497;-60
2023/04/07 02:19:04;;;;;;;;;7.00;4.00;;;;;;;;5076424;27;46056;-60
2023/04/07 02:21:29;;;;;;;;;3.33;2.00;;;;;;;;5076493;27;45387;-59
2023/04/07 02:23:55;;;;;;;;;3.33;3.33;;;;;;;;5075018;27;45600;-59
2023/04/07 02:26:20;;;;;;;;;4.00;2.00;;;;;;;;5076909;28;45501;-59
2023/04/07 02:28:45;;;;;;;;;1.67;1.67;;;;;;;;5076234;27;46035;-59
2023/04/07 02:31:12;;;;;;;;;2.67;2.67;;;;;;;;5076002;27;45905;-59
2023/04/07 02:33:37;;;;;;;;;3.67;2.00;;;;;;;;5074942;27;45565;-59
2023/04/07 02:36:02;;;;;;;;;3.67;2.67;;;;;;;;5076115;27;45519;-59
2023/04/07 02:38:27;;;;;;;;;2.33;2.33;;;;;;;;5073269;27;46206;-59
2023/04/07 02:40:54;;;;;;;;;4.00;4.00;;;;;;;;5074033;27;45723;-60
2023/04/07 02:43:20;;;;;;;;;3.00;2.00;;;;;;;;5076700;27;46221;-59
2023/04/07 02:45:45;;;;;;;;;2.00;2.00;;;;;;;;5076310;27;45517;-59
2023/04/07 02:48:10;;;;;;;;;3.67;3.00;;;;;;;;5075792;27;45574;-59
2023/04/07 02:50:35;;;;;;;;;4.67;4.67;;;;;;;;5076480;27;45560;-60
2023/04/07 02:53:01;;;;;;;;;3.00;3.00;;;;;;;;5076319;27;45600;-59
2023/04/07 02:55:26;;;;;;;;;2.00;2.00;;;;;;;;5075667;27;45370;-59
2023/04/07 02:57:51;;;;;;;;;6.00;3.00;;;;;;;;5076065;27;46304;-60
2023/04/07 03:00:16;;;;;;;;;2.00;2.00;;;;;;;;5076089;27;45453;-60
2023/04/07 03:02:41;;;;;;;;;3.00;1.67;;;;;;;;5074559;27;45547;-59
2023/04/07 03:05:07;;;;;;;;;2.00;2.00;;;;;;;;5075127;27;45673;-60
2023/04/07 03:07:32;;;;;;;;;2.00;2.00;;;;;;;;5075603;27;45483;-59
2023/04/07 03:09:57;;;;;;;;;3.00;3.00;;;;;;;;5074521;27;45469;-60
2023/04/07 03:12:22;;;;;;;;;4.00;2.00;;;;;;;;5075397;27;45555;-60
2023/04/07 03:14:48;;;;;;;;;3.00;3.00;;;;;;;;5076030;27;45478;-60
2023/04/07 03:17:13;;;;;;;;;3.00;2.00;;;;;;;;5074757;27;45531;-60
2023/04/07 03:19:38;;;;;;;;;1.00;1.00;;;;;;;;5075119;27;45527;-60
2023/04/07 03:22:04;;;;;;;;;3.00;3.00;;;;;;;;5075556;27;45518;-59
2023/04/07 03:24:29;;;;;;;;;2.33;2.33;;;;;;;;5074214;27;45515;-60
2023/04/07 03:26:54;;;;;;;;;5.00;4.00;;;;;;;;5075557;27;45640;-59
2023/04/07 03:29:20;;;;;;;;;5.00;3.00;;;;;;;;5075606;27;45486;-59
2023/04/07 03:31:45;;;;;;;;;1.33;1.33;;;;;;;;5074232;27;45490;-59
2023/04/07 03:34:10;;;;;;;;;4.00;3.00;;;;;;;;5075051;27;45512;-60
2023/04/07 03:36:35;;;;;;;;;4.00;3.33;;;;;;;;5074734;27;45967;-59
2023/04/07 03:39:01;;;;;;;;;3.33;2.67;;;;;;;;5075206;27;45465;-60
2023/04/07 03:41:26;;;;;;;;;6.33;5.00;;;;;;;;5075667;27;45623;-60
2023/04/07 03:43:51;;;;;;;;;3.33;3.33;;;;;;;;5075324;27;45586;-60
2023/04/07 03:46:18;;;;;;;;;4.33;3.00;;;;;;;;5075225;27;46291;-60
2023/04/07 03:48:43;;;;;;;;;5.67;3.33;;;;;;;;5074533;27;45551;-59
2023/04/07 03:51:08;;;;;;;;;3.33;3.00;;;;;;;;5075361;28;45567;-59
2023/04/07 03:53:33;;;;;;;;;5.33;3.00;;;;;;;;5074577;27;45591;-59
2023/04/07 03:55:58;;;;;;;;;2.67;2.33;;;;;;;;5074923;27;46569;-60
2023/04/07 03:58:24;;;;;;;;;3.00;3.00;;;;;;;;5075389;27;45457;-59
2023/04/07 04:00:49;;;;;;;;;5.00;4.00;;;;;;;;5075280;27;45715;-60
2023/04/07 04:03:14;;;;;;;;;4.00;4.00;;;;;;;;5075149;27;45669;-60
2023/04/07 04:05:39;;;;;;;;;5.67;3.00;;;;;;;;5074964;27;46081;-59
2023/04/07 04:08:05;;;;;;;;;6.33;4.33;;;;;;;;5073696;27;45507;-60
2023/04/07 04:10:30;;;;;;;;;3.67;3.00;;;;;;;;5074704;27;45473;-60
2023/04/07 04:12:59;;;;;;;;;5.00;3.00;;;;;;;;5075093;27;45463;-59
2023/04/07 04:15:24;;;;;;;;;2.00;2.00;;;;;;;;5074831;27;45646;-60
2023/04/07 04:17:49;;;;;;;;;1.67;1.67;;;;;;;;5074963;27;45609;-60
2023/04/07 04:20:14;;;;;;;;;5.00;3.00;;;;;;;;5074911;27;45449;-60
2023/04/07 04:22:40;;;;;;;;;2.33;2.33;;;;;;;;5075075;27;45590;-59
2023/04/07 04:25:05;;;;;;;;;2.67;2.00;;;;;;;;5074691;27;45523;-60
2023/04/07 04:27:30;;;;;;;;;1.67;1.00;;;;;;;;5074868;27;45531;-59
2023/04/07 04:29:55;;;;;;;;;4.00;3.00;;;;;;;;5074068;27;45519;-60
2023/04/07 04:32:21;;;;;;;;;3.00;3.00;;;;;;;;5074310;27;45476;-59
2023/04/07 04:34:46;;;;;;;;;6.00;4.67;;;;;;;;5072684;27;45514;-60
2023/04/07 04:37:11;;;;;;;;;6.00;4.33;;;;;;;;5074594;27;45484;-59
2023/04/07 04:39:36;;;;;;;;;8.00;5.00;;;;;;;;5074154;27;45616;-59
2023/04/07 04:42:02;;;;;;;;;5.33;3.67;;;;;;;;5072520;27;45469;-59
2023/04/07 04:44:29;;;;;;;;;2.67;2.33;;;;;;;;5074302;27;45505;-59
2023/04/07 04:46:54;;;;;;;;;2.33;2.33;;;;;;;;5072943;27;45493;-59
2023/04/07 04:49:19;;;;;;;;;5.00;3.00;;;;;;;;5074232;27;45520;-59
2023/04/07 04:51:44;;;;;;;;;3.00;3.00;;;;;;;;5072398;27;45477;-59
2023/04/07 04:54:09;;;;;;;;;5.00;5.00;;;;;;;;5071675;27;45547;-59
2023/04/07 04:56:35;;;;;;;;;7.33;4.67;;;;;;;;5074136;27;45750;-59
2023/04/07 04:59:01;;;;;;;;;6.33;5.00;;;;;;;;5074300;28;45615;-59
2023/04/07 05:01:26;;;;;;;;;5.67;4.67;;;;;;;;5071923;27;45488;-59
2023/04/07 05:03:51;;;;;;;;;4.00;4.00;;;;;;;;5073740;27;45520;-61
2023/04/07 05:06:16;;;;;;;;;3.00;3.00;;;;;;;;5073976;27;45558;-60
2023/04/07 05:08:41;;;;;;;;;9.67;5.67;;;;;;;;5072444;27;45483;-60
2023/04/07 05:11:07;;;;;;;;;5.67;4.33;;;;;;;;5073677;27;45428;-59
2023/04/07 05:13:33;;;;;;;;;6.00;5.00;;;;;;;;5068279;27;45928;-59
2023/04/07 05:15:58;;;;;;;;;4.67;4.67;;;;;;;;5058910;28;45851;-60
2023/04/07 05:18:23;;;;;;;;;3.67;3.33;;;;;;;;5066127;27;45454;-59
2023/04/07 05:20:48;;;;;;;;;7.00;6.00;;;;;;;;5061084;28;45407;-59
2023/04/07 05:23:14;;;;;;;;;8.33;5.67;;;;;;;;5066866;27;45944;-59
2023/04/07 05:25:39;;;;;;;;;5.00;5.00;;;;;;;;5074251;27;45447;-59
2023/04/07 05:28:05;;;;;;;;;7.67;7.33;;;;;;;;5073068;27;45453;-61
2023/04/07 05:30:30;;;;;;;;;7.00;6.00;;;;;;;;5073421;27;45630;-59
2023/04/07 05:32:55;;;;;;;;;5.67;5.00;;;;;;;;5073336;27;45916;-58
2023/04/07 05:35:20;;;;;;;;;8.67;5.33;;;;;;;;5067003;28;45502;-58
2023/04/07 05:37:46;;;;;;;;;6.00;6.00;;;;;;;;5072304;27;45453;-58
2023/04/07 05:40:11;;;;;;;;;8.00;6.00;;;;;;;;5073686;27;45606;-58
2023/04/07 05:42:36;;;;;;;;;7.33;6.33;;;;;;;;5074509;27;46091;-59
2023/04/07 05:45:02;;;;;;;;;8.33;8.33;;;;;;;;5072455;27;45442;-58
2023/04/07 05:47:27;;;;;;;;;5.00;5.00;;;;;;;;5079650;27;45438;-59
2023/04/07 05:49:53;;;;;;;;;5.00;5.00;;;;;;;;5069000;28;45407;-61
2023/04/07 05:52:18;;;;;;;;;5.33;5.33;;;;;;;;5062051;27;46081;-58
2023/04/07 05:54:43;;;;;;;;;5.00;5.00;;;;;;;;5064868;27;45686;-58
2023/04/07 05:57:08;;;;;;;;;3.00;3.00;;;;;;;;5064317;27;45848;-58
2023/04/07 05:59:34;;;;;;;;;5.33;5.33;;;;;;;;5064499;27;45389;-58
2023/04/07 06:01:59;;;;;;;;;6.33;5.33;;;;;;;;5064960;27;46253;-58
2023/04/07 06:04:25;;;;;;;;;7.33;6.33;;;;;;;;5048496;27;45684;-58
2023/04/07 06:06:53;;;;;;;;;6.67;5.00;;;;;;;;5061427;27;45621;-58
2023/04/07 06:09:19;;;;;;;;;6.00;5.67;;;;;;;;5069505;27;45726;-58
2023/04/07 06:11:45;;;;;;;;;6.67;5.67;;;;;;;;5078853;27;45525;-58
2023/04/07 06:14:11;;;;;;;;;6.00;6.00;;;;;;;;5074821;27;45492;-58
2023/04/07 06:16:36;;;;;;;;;7.00;5.00;;;;;;;;5078918;27;45502;-58
2023/04/07 06:19:01;;;;;;;;;9.67;7.00;;;;;;;;5079215;27;45586;-57
2023/04/07 06:21:26;;;;;;;;;7.75;6.00;;;;;;;;5079857;27;46019;-57
2023/04/07 06:23:52;;;;;;;;;12.00;10.00;;;;;;;;5078366;27;45454;-57
2023/04/07 06:26:17;;;;;;;;;9.67;7.67;;;;;;;;5071335;27;45618;-58
2023/04/07 06:28:42;;;;;;;;;6.75;6.75;;;;;;;;5075179;27;45465;-58
2023/04/07 06:31:07;;;;;;;;;8.75;6.00;;;;;;;;5076867;27;47121;-57
2023/04/07 06:33:33;;;;;;;;;8.75;7.00;;;;;;;;5079012;27;45394;-58
2023/04/07 06:35:58;;;;;;;;;10.50;8.00;;;;;;;;5079494;27;45547;-57
2023/04/07 06:38:23;;;;;;;;;12.00;12.00;;;;;;;;5079618;27;45532;-57
2023/04/07 06:40:48;;;;;;;;;9.25;8.00;;;;;;;;5079168;27;46203;-58
2023/04/07 06:43:13;;;;;;;;;12.33;11.33;;;;;;;;5078215;27;45524;-54
2023/04/07 06:45:39;;;;;;;;;10.33;9.00;;;;;;;;5075971;27;45617;-58
2023/04/07 06:48:04;;;;;;;;;10.00;9.33;;;;;;;;5073076;27;45533;-64
2023/04/07 06:50:29;;;;;;;;;13.00;13.00;;;;;;;;5072839;27;46059;-63
2023/04/07 06:52:54;;;;;;;;;12.33;12.33;;;;;;;;5075708;27;45510;-57
2023/04/07 06:55:20;;;;;;;;;10.33;9.33;;;;;;;;5071238;27;45784;-60
2023/04/07 06:57:45;;;;;;;;;14.25;12.00;;;;;;;;5073882;27;45365;-55
2023/04/07 07:00:10;;;;;;;;;11.00;11.00;;;;;;;;5075753;27;45840;-63
2023/04/07 07:02:36;;;;;;;;;11.00;9.00;;;;;;;;5074976;27;45472;-66
2023/04/07 07:05:02;;;;;;;;;10.67;8.00;;;;;;;;5069220;28;45565;-62
2023/04/07 07:07:28;;;;;;;;;10.33;9.33;;;;;;;;5069122;27;45551;-63
2023/04/07 07:09:53;;;;;;;;;13.00;13.00;;;;;;;;5074269;27;45502;-64
2023/04/07 07:12:18;;;;;;;;;14.00;11.50;;;;;;;;5075736;27;45469;-62
2023/04/07 07:14:43;;;;;;;;;12.67;12.00;;;;;;;;5076089;27;45575;-64
2023/04/07 07:17:08;;;;;;;;;11.00;11.00;;;;;;;;5075563;27;45395;-63
2023/04/07 07:19:34;;;;;;;;;10.67;10.67;;;;;;;;5075865;27;45502;-61
2023/04/07 07:22:00;;;;;;;;;12.00;11.00;;;;;;;;5075407;27;45441;-65
2023/04/07 07:24:25;;;;;;;;;13.25;11.50;;;;;;;;5075099;27;45488;-64
2023/04/07 07:26:50;;;;;;;;;12.75;11.75;;;;;;;;5061241;28;45624;-61
2023/04/07 07:29:15;;;;;;;;;14.00;12.67;;;;;;;;5074786;27;46317;-62
2023/04/07 07:31:41;;;;;;;;;19.00;13.00;;;;;;;;5074962;27;45546;-64
2023/04/07 07:34:06;;;;;;;;;10.25;10.00;;;;;;;;5075725;27;45655;-60
2023/04/07 07:36:31;;;;;;;;;14.50;13.50;;;;;;;;5074608;27;45340;-64
2023/04/07 07:38:56;;;;;;;;;15.00;13.50;;;;;;;;5074909;27;45465;-63
2023/04/07 07:41:21;;;;;;;;;16.00;12.67;;;;;;;;5069789;27;45620;-61
2023/04/07 07:43:47;;;;;;;;;13.33;11.67;;;;;;;;5056261;28;45481;-64
2023/04/07 07:46:12;;;;;;;;;11.67;11.00;;;;;;;;5069909;27;45529;-63
2023/04/07 07:48:37;;;;;;;;;16.50;12.75;;;;;;;;5067267;27;45598;-64
2023/04/07 07:51:02;;;;;;;;;12.67;12.67;;;;;;;;5074921;27;45478;-62
2023/04/07 07:53:28;;;;;;;;;15.50;14.50;;;;;;;;5075346;27;45465;-64
2023/04/07 07:55:54;;;;;;;;;17.00;16.67;;;;;;;;5075122;27;45577;-66
2023/04/07 07:58:20;;;;;;;;;15.33;12.33;;;;;;;;5074840;27;46242;-63
2023/04/07 08:00:45;;;;;;;;;15.67;14.67;;;;;;;;5060300;28;46094;-64
2023/04/07 08:03:10;;;;;;;;;13.67;13.33;;;;;;;;5075094;27;45385;-64
2023/04/07 08:05:36;;;;;;;;;13.00;13.00;;;;;;;;5075082;27;46124;-63
2023/04/07 08:08:01;;;;;;;;;15.75;13.75;;;;;;;;5074609;28;45530;-65
2023/04/07 08:10:27;;;;;;;;;18.00;17.25;;;;;;;;5073953;27;45540;-66
2023/04/07 08:12:52;;;;;;;;;13.75;13.00;;;;;;;;5075159;28;45490;-63
2023/04/07 08:15:17;;;;;;;;;13.67;12.33;;;;;;;;5074809;27;45546;-64
2023/04/07 08:17:42;;;;;;;;;15.25;12.50;;;;;;;;5073638;27;46301;-59
2023/04/07 08:20:09;;;;;;;;;16.00;16.00;;;;;;;;5074151;27;45425;-63
2023/04/07 08:22:34;;;;;;;;;19.50;15.75;;;;;;;;5074039;27;45449;-63
2023/04/07 08:24:59;;;;;;;;;14.00;13.67;;;;;;;;5074635;27;45639;-58
2023/04/07 08:27:24;;;;;;;;;13.67;13.67;;;;;;;;5074012;27;46147;-64
2023/04/07 08:30:03;;;;;;;;;12.33;12.33;;;;;;;;5073218;27;45469;-63
2023/04/07 08:32:39;;;;;;;;;15.67;14.00;;;;;;;;5073928;27;45528;-65
2023/04/07 08:35:04;;;;;;;;;15.33;15.00;;;;;;;;5073074;27;45625;-63
2023/04/07 08:37:30;;;;;;;;;16.67;14.67;;;;;;;;5072980;27;45927;-67
2023/04/07 08:39:55;;;;;;;;;16.00;16.00;;;;;;;;5074140;27;45518;-60
2023/04/07 08:42:24;;;;;;;;;20.00;16.00;;;;;;;;5063325;27;45463;-66
2023/04/07 08:44:50;;;;;;;;;15.00;14.00;;;;;;;;5074479;27;45569;-62
2023/04/07 08:47:16;;;;;;;;;13.00;13.00;;;;;;;;5061856;28;45473;-58
2023/04/07 08:49:43;;;;;;;;;16.67;16.67;;;;;;;;5073178;28;45567;-59
2023/04/07 08:52:10;;;;;;;;;15.33;11.67;;;;;;;;5070051;27;45602;-63
2023/04/07 08:54:35;;;;;;;;;15.67;15.00;;;;;;;;5073997;27;45517;-63
2023/04/07 08:57:01;;;;;;;;;14.00;14.00;;;;;;;;5073408;27;45736;-62
2023/04/07 08:59:28;;;;;;;;;14.00;12.00;;;;;;;;5072887;27;45529;-65
2023/04/07 09:01:54;;;;;;;;;17.67;15.33;;;;;;;;5072565;27;45562;-65
2023/04/07 09:04:21;;;;;;;;;14.00;14.00;;;;;;;;5073942;27;45790;-69
2023/04/07 09:06:46;;;;;;;;;24.75;22.50;;;;;;;;5073477;27;46201;-67
2023/04/07 09:09:12;;;;;;;;;14.33;14.33;;;;;;;;5070707;27;45525;-66
2023/04/07 09:11:38;;;;;;;;;18.33;17.00;;;;;;;;5072947;27;45430;-66
2023/04/07 09:14:04;;;;;;;;;14.67;12.67;;;;;;;;5073809;27;45513;-62
2023/04/07 09:16:32;;;;;;;;;14.67;14.67;;;;;;;;5073364;27;45501;-64
2023/04/07 09:18:57;;;;;;;;;16.00;14.67;;;;;;;;5072995;27;45438;-67
2023/04/07 09:21:23;;;;;;;;;14.00;12.67;;;;;;;;5072937;27;45422;-65
2023/04/07 09:23:48;;;;;;;;;15.00;13.33;;;;;;;;5073740;27;45596;-69
2023/04/07 09:26:24;;;;;;;;;16.33;15.33;;;;;;;;5072541;27;46136;-66
2023/04/07 09:28:59;;;;;;;;;13.33;12.00;;;;;;;;5072647;27;45525;-70
2023/04/07 09:31:43;;;;;;;;;31.50;30.75;;;;;;;;5071784;27;45493;-68
2023/04/07 09:34:23;;;;;;;;;37.50;34.25;;;;;;;;5073602;27;45723;-65
2023/04/07 09:36:49;;;;;;;;;16.00;16.00;;;;;;;;5071451;27;45815;-68
2023/04/07 09:39:14;;;;;;;;;14.33;13.00;;;;;;;;5073321;28;45653;-67
2023/04/07 09:41:40;;;;;;;;;13.33;12.33;;;;;;;;5070231;28;45595;-67
2023/04/07 09:44:05;;;;;;;;;15.33;14.33;;;;;;;;5073604;27;45663;-67
2023/04/07 09:46:31;;;;;;;;;15.67;13.33;;;;;;;;5066160;27;46052;-70
2023/04/07 09:49:01;;;;;;;;;13.33;11.67;;;;;;;;5068136;27;45511;-63
2023/04/07 09:51:26;;;;;;;;;12.00;9.67;;;;;;;;5073264;28;45508;-62
2023/04/07 09:53:52;;;;;;;;;14.67;11.33;;;;;;;;5059396;28;45548;-68
2023/04/07 09:56:21;;;;;;;;;12.33;9.00;;;;;;;;5072335;28;45943;-66
2023/04/07 09:58:46;;;;;;;;;10.33;9.67;;;;;;;;5072158;27;45492;-62
2023/04/07 10:01:12;;;;;;;;;15.00;13.00;;;;;;;;5072964;27;45654;-61
2023/04/07 10:03:38;;;;;;;;;12.33;10.00;;;;;;;;5073364;28;45492;-62
2023/04/07 10:06:05;;;;;;;;;12.33;9.67;;;;;;;;5072849;27;45997;-64
2023/04/07 10:08:31;;;;;;;;;9.00;9.00;;;;;;;;5072876;27;45519;-61
2023/04/07 10:10:57;;;;;;;;;8.00;7.33;;;;;;;;5073004;28;45759;-64
2023/04/07 10:13:23;;;;;;;;;11.00;5.67;;;;;;;;5072878;27;45480;-64
2023/04/07 10:15:48;;;;;;;;;8.67;8.33;;;;;;;;5072094;28;46127;-67
2023/04/07 10:18:14;;;;;;;;;8.33;7.33;;;;;;;;5072657;27;45659;-62
2023/04/07 10:20:43;;;;;;;;;10.33;9.00;;;;;;;;5073061;27;45493;-55
2023/04/07 10:23:15;;;;;;;;;9.00;7.67;;;;;;;;5072072;27;45495;-63
2023/04/07 10:25:41;;;;;;;;;7.33;7.33;;;;;;;;5072573;27;45964;-62
2023/04/07 10:28:08;;;;;;;;;10.33;9.00;;;;;;;;5072482;27;45420;-63
2023/04/07 10:30:34;;;;;;;;;6.00;6.00;;;;;;;;5072657;27;45459;-58
2023/04/07 10:32:59;;;;;;;;;7.67;7.00;;;;;;;;5071365;27;45591;-58
2023/04/07 10:35:24;;;;;;;;;9.00;8.67;;;;;;;;5075742;27;45800;-58
2023/04/07 10:38:12;;;;;;;;;8.00;8.00;;;;;;;;5073306;27;45552;-59
2023/04/07 10:40:38;;;;;;;;;6.00;6.00;;;;;;;;5069973;27;45564;-58
2023/04/07 10:43:04;;;;;;;;;7.00;6.00;;;;;;;;5075588;27;45532;-54
2023/04/07 10:45:47;;;;;;;;;5.00;5.00;;;;;;;;5081880;27;47259;-56
2023/04/07 10:48:14;;;;;;;;;17.33;17.33;;;;;;;;5075640;27;45504;-56
2023/04/07 10:50:39;;;;;;;;;15.33;15.33;;;;;;;;5075704;27;45442;-58
2023/04/07 10:53:09;;;;;;;;;14.00;14.00;;;;;;;;5075576;27;45402;-59
2023/04/07 10:55:38;;;;;;;;;14.00;14.00;;;;;;;;5075666;27;45544;-55
2023/04/07 10:58:12;;;;;;;;;5.67;5.67;;;;;;;;5075688;27;45496;-59
2023/04/07 11:00:37;;;;;;;;;10.00;8.33;;;;;;;;5075961;27;45491;-57
2023/04/07 11:03:12;;;;;;;;;6.50;6.00;;;;;;;;5075779;27;45466;-58
2023/04/07 11:05:38;;;;;;;;;8.67;8.67;;;;;;;;5075589;27;45451;-56
2023/04/07 11:08:05;;;;;;;;;11.33;11.33;;;;;;;;5075511;28;45564;-58
2023/04/07 11:10:30;;;;;;;;;9.00;8.00;;;;;;;;5075478;27;45646;-59
2023/04/07 11:12:59;;;;;;;;;6.00;6.00;;;;;;;;5074830;27;45627;-58
2023/04/07 11:15:24;;;;;;;;;8.33;7.00;;;;;;;;5073956;27;47164;-56
2023/04/07 11:18:08;;;;;;;;;26.00;24.33;;;;;;;;5074353;27;45954;-57
2023/04/07 11:20:47;;;;;;;;;12.33;9.00;;;;;;;;5073311;27;45501;-57
2023/04/07 11:23:14;;;;;;;;;19.33;17.00;;;;;;;;5072951;27;45498;-56
2023/04/07 11:25:43;;;;;;;;;19.33;19.33;;;;;;;;5075867;28;46228;-57
2023/04/07 11:28:10;;;;;;;;;7.00;5.67;;;;;;;;5075672;27;45515;-58
2023/04/07 11:30:36;;;;;;;;;5.67;4.67;;;;;;;;5076214;27;45496;-57
2023/04/07 11:33:02;;;;;;;;;4.67;4.67;;;;;;;;5075415;27;45447;-59
2023/04/07 11:35:29;;;;;;;;;4.33;4.33;;;;;;;;5075580;27;46882;-58
2023/04/07 11:37:58;;;;;;;;;3.33;3.33;;;;;;;;5065712;27;45649;-59
2023/04/07 11:40:33;;;;;;;;;4.00;4.00;;;;;;;;5070901;27;45464;-57
2023/04/07 11:43:00;;;;;;;;;5.00;5.00;;;;;;;;5069150;27;45410;-57
2023/04/07 11:45:25;;;;;;;;;4.67;4.67;;;;;;;;5068295;27;46064;-57
2023/04/07 11:47:51;;;;;;;;;5.00;4.33;;;;;;;;5053051;28;45495;-60
2023/04/07 11:50:16;;;;;;;;;5.00;4.33;;;;;;;;5066986;27;45466;-60
2023/04/07 11:52:42;;;;;;;;;3.00;3.00;;;;;;;;5074751;27;45586;-60
2023/04/07 11:55:21;;;;;;;;;6.00;6.00;;;;;;;;5070242;27;45405;-57
2023/04/07 11:57:47;;;;;;;;;5.67;5.67;;;;;;;;5071096;27;46114;-58
2023/04/07 12:00:13;;;;;;;;;3.33;3.33;;;;;;;;5074573;27;45500;-57
2023/04/07 12:02:38;;;;;;;;;1.00;1.00;;;;;;;;5074894;27;45623;-57
2023/04/07 12:05:04;;;;;;;;;3.00;3.00;;;;;;;;5074897;27;45595;-57
2023/04/07 12:07:30;;;;;;;;;3.33;2.33;;;;;;;;5074810;28;45500;-57
2023/04/07 12:09:56;;;;;;;;;2.00;2.00;;;;;;;;5071307;27;45584;-64
2023/04/07 12:12:28;;;;;;;;;3.00;3.00;;;;;;;;5061157;27;46083;-64
2023/04/07 12:14:54;;;;;;;;;3.00;3.00;;;;;;;;5063402;28;46172;-63
2023/04/07 12:17:22;;;;;;;;;2.00;2.00;;;;;;;;5070852;27;45599;-63
2023/04/07 12:19:48;;;;;;;;;2.67;2.67;;;;;;;;5067499;28;45504;-64
2023/04/07 12:22:13;;;;;;;;;4.00;3.00;;;;;;;;5068268;27;45557;-64
2023/04/07 12:24:38;;;;;;;;;4.00;4.00;;;;;;;;5074512;27;45517;-65
2023/04/07 12:27:03;;;;;;;;;6.67;3.00;;;;;;;;5071780;27;45979;-65
2023/04/07 12:29:28;;;;;;;;;4.33;4.00;;;;;;;;5070905;27;45851;-62
2023/04/07 12:31:55;;;;;;;;;5.00;5.00;;;;;;;;5073232;27;45604;-62
2023/04/07 12:34:20;;;;;;;;;5.00;5.00;;;;;;;;5074760;27;45538;-68
2023/04/07 12:36:45;;;;;;;;;5.00;4.00;;;;;;;;5069179;27;45529;-66
2023/04/07 12:39:11;;;;;;;;;3.00;3.00;;;;;;;;5072319;27;45515;-64
2023/04/07 12:41:37;;;;;;;;;4.00;4.00;;;;;;;;5073764;28;45567;-57
2023/04/07 12:44:02;;;;;;;;;4.33;4.33;;;;;;;;5070312;27;45993;-58
2023/04/07 12:46:27;;;;;;;;;4.00;4.00;;;;;;;;5074060;27;45559;-59
2023/04/07 12:48:53;;;;;;;;;4.00;2.67;;;;;;;;5062384;27;45503;-58
2023/04/07 12:51:18;;;;;;;;;4.00;4.00;;;;;;;;5074343;27;45722;-60
2023/04/07 12:53:43;;;;;;;;;6.00;5.00;;;;;;;;5074257;27;46462;-60
2023/04/07 12:56:09;;;;;;;;;4.00;4.00;;;;;;;;5072897;27;45630;-59
2023/04/07 12:58:34;;;;;;;;;4.00;4.00;;;;;;;;5074543;27;45503;-57
2023/04/07 13:01:00;;;;;;;;;3.67;3.00;;;;;;;;5074430;27;45584;-62
2023/04/07 13:03:25;;;;;;;;;3.33;3.33;;;;;;;;5074133;27;45540;-59
2023/04/07 13:05:53;;;;;;;;;4.00;4.00;;;;;;;;5073133;27;45586;-63
2023/04/07 13:08:18;;;;;;;;;3.00;3.00;;;;;;;;5060378;28;45566;-65
2023/04/07 13:10:43;;;;;;;;;3.00;3.00;;;;;;;;5064121;28;45441;-55
2023/04/07 13:13:08;;;;;;;;;3.33;2.67;;;;;;;;5066852;27;45535;-56
2023/04/07 13:15:33;;;;;;;;;3.33;2.67;;;;;;;;5059953;28;45471;-58
2023/04/07 13:17:58;;;;;;;;;3.67;3.67;;;;;;;;5073919;27;45412;-56
2023/04/07 13:20:26;;;;;;;;;5.00;5.00;;;;;;;;5073991;27;45522;-57
2023/04/07 13:22:52;;;;;;;;;4.67;4.67;;;;;;;;5062524;28;45579;-60
2023/04/07 13:25:17;;;;;;;;;5.00;3.67;;;;;;;;5068932;28;45528;-57
2023/04/07 13:27:42;;;;;;;;;2.67;2.67;;;;;;;;5048504;28;45519;-60
2023/04/07 13:30:07;;;;;;;;;6.00;5.00;;;;;;;;5073399;27;45610;-58
2023/04/07 13:32:33;;;;;;;;;6.00;3.67;;;;;;;;5071850;28;45422;-60
2023/04/07 13:34:58;;;;;;;;;2.33;2.33;;;;;;;;5073536;27;45528;-58
2023/04/07 13:37:24;;;;;;;;;4.00;4.00;;;;;;;;5073671;28;45492;-57
2023/04/07 13:39:49;;;;;;;;;2.00;2.00;;;;;;;;5076391;27;45576;-58
2023/04/07 13:42:16;;;;;;;;;3.00;3.00;;;;;;;;5068190;27;45588;-56
2023/04/07 13:44:44;;;;;;;;;5.00;5.00;;;;;;;;5066115;27;45513;-63
2023/04/07 13:47:09;;;;;;;;;3.67;3.67;;;;;;;;5062205;27;45589;-62
2023/04/07 13:49:35;;;;;;;;;4.00;4.00;;;;;;;;5073340;27;45604;-62
2023/04/07 13:52:00;;;;;;;;;2.00;2.00;;;;;;;;5071396;27;45576;-63
2023/04/07 13:54:25;;;;;;;;;3.00;3.00;;;;;;;;5073153;27;45482;-61
2023/04/07 13:56:50;;;;;;;;;3.00;3.00;;;;;;;;5072554;28;45483;-62
2023/04/07 13:59:15;;;;;;;;;5.33;2.00;;;;;;;;5071061;27;45462;-59
2023/04/07 14:01:41;;;;;;;;;3.67;3.67;;;;;;;;5072220;27;45547;-64
2023/04/07 14:04:06;;;;;;;;;3.67;2.00;;;;;;;;5072409;27;45569;-65
2023/04/07 14:06:31;;;;;;;;;4.67;3.00;;;;;;;;5065040;27;45507;-64
2023/04/07 14:08:57;;;;;;;;;4.00;3.00;;;;;;;;5062475;27;45496;-65
2023/04/07 14:11:22;;;;;;;;;4.00;4.00;;;;;;;;5074101;27;45744;-62
2023/04/07 14:13:48;;;;;;;;;5.00;5.00;;;;;;;;5075987;27;45468;-60
2023/04/07 14:16:13;;;;;;;;;3.67;3.67;;;;;;;;5067827;27;45722;-58
2023/04/07 14:18:39;;;;;;;;;5.00;3.00;;;;;;;;5065541;27;45462;-59
2023/04/07 14:21:04;;;;;;;;;4.00;4.00;;;;;;;;5076260;27;45464;-59
2023/04/07 14:23:31;;;;;;;;;4.00;4.00;;;;;;;;5076421;27;45544;-59
2023/04/07 14:25:56;;;;;;;;;4.00;4.00;;;;;;;;5076929;27;45477;-59
2023/04/07 14:28:21;;;;;;;;;3.00;3.00;;;;;;;;5076667;27;45394;-59
2023/04/07 14:30:47;;;;;;;;;2.33;2.00;;;;;;;;5076225;28;46437;-58